sensor_id;sensor_type;location;lat;lon;timestamp;P1;durP1;ratioP1;P2;durP2;ratioP2
16310;SDS011;8264;48.510;8.872;2022-09-09T00:00:06;2.53;;;1.20;;
16310;SDS011;8264;48.510;8.872;2022-09-09T00:02:39;4.73;;;1.40;;
16310;SDS011;8264;48.510;8.872;2022-09-09T00:05:12;1.63;;;1.17;;
16310;SDS011;8264;48.510;8.872;2022-09-09T00:07:45;3.57;;;1.50;;
16310;SDS011;8264;48.510;8.872;2022-09-09T00:10:16;4.23;;;1.50;;
16310;SDS011;8264;48.510;8.872;2022-09-09T00:12:48;3.23;;;1.20;;
16310;SDS011;8264;48.510;8.872;2022-09-09T00:15:20;2.77;;;1.27;;
16310;SDS011;8264;48.510;8.872;2022-09-09T00:17:52;3.70;;;1.13;;
16310;SDS011;8264;48.510;8.872;2022-09-09T00:20:23;3.27;;;1.43;;
16310;SDS011;8264;48.510;8.872;2022-09-09T00:22:55;3.73;;;1.30;;
16310;SDS011;8264;48.510;8.872;2022-09-09T00:25:27;2.73;;;1.00;;
16310;SDS011;8264;48.510;8.872;2022-09-09T00:27:56;3.07;;;1.13;;
16310;SDS011;8264;48.510;8.872;2022-09-09T00:30:23;4.23;;;1.40;;
16310;SDS011;8264;48.510;8.872;2022-09-09T00:32:53;2.83;;;1.10;;
16310;SDS011;8264;48.510;8.872;2022-09-09T00:35:24;4.00;;;1.10;;
16310;SDS011;8264;48.510;8.872;2022-09-09T00:37:52;6.13;;;1.50;;
16310;SDS011;8264;48.510;8.872;2022-09-09T00:40:23;2.60;;;1.27;;
16310;SDS011;8264;48.510;8.872;2022-09-09T00:42:54;5.17;;;1.30;;
16310;SDS011;8264;48.510;8.872;2022-09-09T00:45:57;2.93;;;1.27;;
16310;SDS011;8264;48.510;8.872;2022-09-09T00:48:34;2.43;;;1.30;;
16310;SDS011;8264;48.510;8.872;2022-09-09T00:51:07;2.33;;;0.97;;
16310;SDS011;8264;48.510;8.872;2022-09-09T00:53:38;3.80;;;1.40;;
16310;SDS011;8264;48.510;8.872;2022-09-09T00:56:19;4.13;;;1.40;;
16310;SDS011;8264;48.510;8.872;2022-09-09T00:58:49;4.53;;;1.10;;
16310;SDS011;8264;48.510;8.872;2022-09-09T01:01:21;4.90;;;1.00;;
16310;SDS011;8264;48.510;8.872;2022-09-09T01:03:51;2.97;;;1.10;;
16310;SDS011;8264;48.510;8.872;2022-09-09T01:06:20;3.90;;;1.40;;
16310;SDS011;8264;48.510;8.872;2022-09-09T01:08:55;5.03;;;1.40;;
16310;SDS011;8264;48.510;8.872;2022-09-09T01:11:32;2.97;;;0.97;;
16310;SDS011;8264;48.510;8.872;2022-09-09T01:14:05;5.23;;;1.20;;
16310;SDS011;8264;48.510;8.872;2022-09-09T01:16:39;2.57;;;1.10;;
16310;SDS011;8264;48.510;8.872;2022-09-09T01:19:09;2.63;;;1.10;;
16310;SDS011;8264;48.510;8.872;2022-09-09T01:21:38;3.47;;;1.20;;
16310;SDS011;8264;48.510;8.872;2022-09-09T01:24:19;3.30;;;1.23;;
16310;SDS011;8264;48.510;8.872;2022-09-09T01:26:50;3.40;;;1.23;;
16310;SDS011;8264;48.510;8.872;2022-09-09T01:29:18;10.00;;;1.50;;
16310;SDS011;8264;48.510;8.872;2022-09-09T01:31:52;5.33;;;1.27;;
16310;SDS011;8264;48.510;8.872;2022-09-09T01:34:20;2.37;;;1.13;;
16310;SDS011;8264;48.510;8.872;2022-09-09T01:36:47;2.97;;;1.07;;
16310;SDS011;8264;48.510;8.872;2022-09-09T01:39:16;6.00;;;1.50;;
16310;SDS011;8264;48.510;8.872;2022-09-09T01:41:43;3.80;;;1.07;;
16310;SDS011;8264;48.510;8.872;2022-09-09T01:44:11;3.43;;;1.10;;
16310;SDS011;8264;48.510;8.872;2022-09-09T01:46:38;2.57;;;1.10;;
16310;SDS011;8264;48.510;8.872;2022-09-09T01:49:05;3.23;;;1.20;;
16310;SDS011;8264;48.510;8.872;2022-09-09T01:51:32;3.43;;;1.40;;
16310;SDS011;8264;48.510;8.872;2022-09-09T01:53:59;3.60;;;1.20;;
16310;SDS011;8264;48.510;8.872;2022-09-09T01:56:30;3.00;;;1.23;;
16310;SDS011;8264;48.510;8.872;2022-09-09T01:59:04;2.67;;;1.10;;
16310;SDS011;8264;48.510;8.872;2022-09-09T02:01:41;5.53;;;1.30;;
16310;SDS011;8264;48.510;8.872;2022-09-09T02:04:18;6.83;;;1.37;;
16310;SDS011;8264;48.510;8.872;2022-09-09T02:06:52;4.17;;;1.27;;
16310;SDS011;8264;48.510;8.872;2022-09-09T02:09:21;2.90;;;1.33;;
16310;SDS011;8264;48.510;8.872;2022-09-09T02:11:49;1.83;;;1.27;;
16310;SDS011;8264;48.510;8.872;2022-09-09T02:14:23;3.30;;;1.10;;
16310;SDS011;8264;48.510;8.872;2022-09-09T02:16:54;3.70;;;1.27;;
16310;SDS011;8264;48.510;8.872;2022-09-09T02:19:24;4.03;;;1.10;;
16310;SDS011;8264;48.510;8.872;2022-09-09T02:21:52;3.33;;;1.00;;
16310;SDS011;8264;48.510;8.872;2022-09-09T02:24:21;4.57;;;1.57;;
16310;SDS011;8264;48.510;8.872;2022-09-09T02:26:49;2.40;;;1.37;;
16310;SDS011;8264;48.510;8.872;2022-09-09T02:29:18;3.40;;;1.30;;
16310;SDS011;8264;48.510;8.872;2022-09-09T02:31:47;2.60;;;1.20;;
16310;SDS011;8264;48.510;8.872;2022-09-09T02:34:17;3.83;;;1.10;;
16310;SDS011;8264;48.510;8.872;2022-09-09T02:36:46;2.57;;;1.27;;
16310;SDS011;8264;48.510;8.872;2022-09-09T02:39:13;2.07;;;1.10;;
16310;SDS011;8264;48.510;8.872;2022-09-09T02:41:40;3.53;;;1.40;;
16310;SDS011;8264;48.510;8.872;2022-09-09T02:44:09;2.63;;;1.30;;
16310;SDS011;8264;48.510;8.872;2022-09-09T02:46:42;3.47;;;1.20;;
16310;SDS011;8264;48.510;8.872;2022-09-09T02:49:19;1.97;;;1.13;;
16310;SDS011;8264;48.510;8.872;2022-09-09T02:51:52;3.03;;;1.30;;
16310;SDS011;8264;48.510;8.872;2022-09-09T02:54:24;2.80;;;1.30;;
16310;SDS011;8264;48.510;8.872;2022-09-09T02:56:55;3.20;;;1.20;;
16310;SDS011;8264;48.510;8.872;2022-09-09T02:59:26;2.47;;;1.20;;
16310;SDS011;8264;48.510;8.872;2022-09-09T03:01:54;5.07;;;1.53;;
16310;SDS011;8264;48.510;8.872;2022-09-09T03:04:22;1.50;;;1.10;;
16310;SDS011;8264;48.510;8.872;2022-09-09T03:06:49;2.73;;;1.37;;
16310;SDS011;8264;48.510;8.872;2022-09-09T03:09:15;2.57;;;1.40;;
16310;SDS011;8264;48.510;8.872;2022-09-09T03:11:42;3.63;;;1.40;;
16310;SDS011;8264;48.510;8.872;2022-09-09T03:14:09;2.50;;;1.20;;
16310;SDS011;8264;48.510;8.872;2022-09-09T03:16:36;3.97;;;1.20;;
16310;SDS011;8264;48.510;8.872;2022-09-09T03:19:02;5.73;;;1.60;;
16310;SDS011;8264;48.510;8.872;2022-09-09T03:21:30;2.40;;;1.13;;
16310;SDS011;8264;48.510;8.872;2022-09-09T03:23:57;3.23;;;1.40;;
16310;SDS011;8264;48.510;8.872;2022-09-09T03:26:23;3.13;;;1.00;;
16310;SDS011;8264;48.510;8.872;2022-09-09T03:28:50;3.43;;;1.40;;
16310;SDS011;8264;48.510;8.872;2022-09-09T03:31:17;2.60;;;1.07;;
16310;SDS011;8264;48.510;8.872;2022-09-09T03:33:44;4.57;;;1.40;;
16310;SDS011;8264;48.510;8.872;2022-09-09T03:36:10;3.20;;;1.30;;
16310;SDS011;8264;48.510;8.872;2022-09-09T03:38:38;4.43;;;1.43;;
16310;SDS011;8264;48.510;8.872;2022-09-09T03:41:05;2.67;;;1.40;;
16310;SDS011;8264;48.510;8.872;2022-09-09T03:43:33;3.93;;;1.67;;
16310;SDS011;8264;48.510;8.872;2022-09-09T03:45:59;4.73;;;1.83;;
16310;SDS011;8264;48.510;8.872;2022-09-09T03:48:26;3.30;;;1.50;;
16310;SDS011;8264;48.510;8.872;2022-09-09T03:50:54;3.70;;;1.57;;
16310;SDS011;8264;48.510;8.872;2022-09-09T03:53:23;3.23;;;1.33;;
16310;SDS011;8264;48.510;8.872;2022-09-09T03:55:53;3.53;;;1.50;;
16310;SDS011;8264;48.510;8.872;2022-09-09T03:58:21;4.03;;;1.30;;
16310;SDS011;8264;48.510;8.872;2022-09-09T04:00:58;3.63;;;1.40;;
16310;SDS011;8264;48.510;8.872;2022-09-09T04:03:26;3.73;;;1.20;;
16310;SDS011;8264;48.510;8.872;2022-09-09T04:05:53;4.40;;;1.57;;
16310;SDS011;8264;48.510;8.872;2022-09-09T04:08:20;3.57;;;1.50;;
16310;SDS011;8264;48.510;8.872;2022-09-09T04:10:49;4.13;;;1.27;;
16310;SDS011;8264;48.510;8.872;2022-09-09T04:13:18;2.60;;;1.50;;
16310;SDS011;8264;48.510;8.872;2022-09-09T04:15:49;5.17;;;1.40;;
16310;SDS011;8264;48.510;8.872;2022-09-09T04:18:16;1.53;;;1.20;;
16310;SDS011;8264;48.510;8.872;2022-09-09T04:20:45;2.60;;;1.20;;
16310;SDS011;8264;48.510;8.872;2022-09-09T04:23:12;2.90;;;1.20;;
16310;SDS011;8264;48.510;8.872;2022-09-09T04:25:42;1.93;;;1.20;;
16310;SDS011;8264;48.510;8.872;2022-09-09T04:28:10;3.87;;;1.40;;
16310;SDS011;8264;48.510;8.872;2022-09-09T04:30:38;1.97;;;1.23;;
16310;SDS011;8264;48.510;8.872;2022-09-09T04:33:05;2.37;;;1.20;;
16310;SDS011;8264;48.510;8.872;2022-09-09T04:35:31;4.03;;;1.60;;
16310;SDS011;8264;48.510;8.872;2022-09-09T04:37:58;2.87;;;1.20;;
16310;SDS011;8264;48.510;8.872;2022-09-09T04:40:24;5.67;;;1.10;;
16310;SDS011;8264;48.510;8.872;2022-09-09T04:42:51;10.73;;;2.07;;
16310;SDS011;8264;48.510;8.872;2022-09-09T04:45:17;4.60;;;3.80;;
16310;SDS011;8264;48.510;8.872;2022-09-09T04:47:45;5.63;;;2.60;;
16310;SDS011;8264;48.510;8.872;2022-09-09T04:50:12;4.13;;;2.17;;
16310;SDS011;8264;48.510;8.872;2022-09-09T04:52:38;3.27;;;2.57;;
16310;SDS011;8264;48.510;8.872;2022-09-09T04:55:06;4.27;;;2.40;;
16310;SDS011;8264;48.510;8.872;2022-09-09T04:57:34;4.33;;;2.63;;
16310;SDS011;8264;48.510;8.872;2022-09-09T05:00:01;6.17;;;2.60;;
16310;SDS011;8264;48.510;8.872;2022-09-09T05:02:28;3.60;;;1.77;;
16310;SDS011;8264;48.510;8.872;2022-09-09T05:04:56;4.77;;;1.70;;
16310;SDS011;8264;48.510;8.872;2022-09-09T05:07:23;3.37;;;1.50;;
16310;SDS011;8264;48.510;8.872;2022-09-09T05:09:51;2.83;;;1.60;;
16310;SDS011;8264;48.510;8.872;2022-09-09T05:12:17;1.83;;;1.37;;
16310;SDS011;8264;48.510;8.872;2022-09-09T05:14:44;3.10;;;1.43;;
16310;SDS011;8264;48.510;8.872;2022-09-09T05:17:10;3.63;;;1.50;;
16310;SDS011;8264;48.510;8.872;2022-09-09T05:19:38;4.23;;;1.30;;
16310;SDS011;8264;48.510;8.872;2022-09-09T05:22:06;4.40;;;1.70;;
16310;SDS011;8264;48.510;8.872;2022-09-09T05:24:32;3.37;;;1.97;;
16310;SDS011;8264;48.510;8.872;2022-09-09T05:26:59;3.27;;;1.60;;
16310;SDS011;8264;48.510;8.872;2022-09-09T05:29:27;3.80;;;1.50;;
16310;SDS011;8264;48.510;8.872;2022-09-09T05:31:53;12.43;;;9.53;;
16310;SDS011;8264;48.510;8.872;2022-09-09T05:34:20;7.47;;;4.57;;
16310;SDS011;8264;48.510;8.872;2022-09-09T05:36:47;3.67;;;2.23;;
16310;SDS011;8264;48.510;8.872;2022-09-09T05:39:15;5.67;;;3.10;;
16310;SDS011;8264;48.510;8.872;2022-09-09T05:41:41;4.70;;;1.60;;
16310;SDS011;8264;48.510;8.872;2022-09-09T05:44:07;3.03;;;1.77;;
16310;SDS011;8264;48.510;8.872;2022-09-09T05:46:34;2.53;;;1.73;;
16310;SDS011;8264;48.510;8.872;2022-09-09T05:49:01;5.97;;;1.93;;
16310;SDS011;8264;48.510;8.872;2022-09-09T05:51:28;3.27;;;1.77;;
16310;SDS011;8264;48.510;8.872;2022-09-09T05:53:56;3.47;;;1.70;;
16310;SDS011;8264;48.510;8.872;2022-09-09T05:56:25;5.13;;;1.90;;
16310;SDS011;8264;48.510;8.872;2022-09-09T05:58:53;2.70;;;1.40;;
16310;SDS011;8264;48.510;8.872;2022-09-09T06:01:20;2.57;;;1.50;;
16310;SDS011;8264;48.510;8.872;2022-09-09T06:03:48;3.03;;;1.47;;
16310;SDS011;8264;48.510;8.872;2022-09-09T06:06:16;5.20;;;1.60;;
16310;SDS011;8264;48.510;8.872;2022-09-09T06:08:45;3.17;;;1.73;;
16310;SDS011;8264;48.510;8.872;2022-09-09T06:11:13;3.33;;;1.60;;
16310;SDS011;8264;48.510;8.872;2022-09-09T06:13:42;3.67;;;1.60;;
16310;SDS011;8264;48.510;8.872;2022-09-09T06:16:09;4.43;;;1.60;;
16310;SDS011;8264;48.510;8.872;2022-09-09T06:18:37;4.60;;;1.60;;
16310;SDS011;8264;48.510;8.872;2022-09-09T06:21:04;6.80;;;2.13;;
16310;SDS011;8264;48.510;8.872;2022-09-09T06:23:31;43.73;;;4.20;;
16310;SDS011;8264;48.510;8.872;2022-09-09T06:26:03;132.63;;;9.57;;
16310;SDS011;8264;48.510;8.872;2022-09-09T06:28:31;174.77;;;13.17;;
16310;SDS011;8264;48.510;8.872;2022-09-09T06:30:59;71.63;;;6.70;;
16310;SDS011;8264;48.510;8.872;2022-09-09T06:33:26;57.53;;;4.30;;
16310;SDS011;8264;48.510;8.872;2022-09-09T06:35:52;23.47;;;2.90;;
16310;SDS011;8264;48.510;8.872;2022-09-09T06:38:19;5.13;;;1.53;;
16310;SDS011;8264;48.510;8.872;2022-09-09T06:40:50;6.33;;;1.47;;
16310;SDS011;8264;48.510;8.872;2022-09-09T06:43:17;10.90;;;1.60;;
16310;SDS011;8264;48.510;8.872;2022-09-09T06:45:52;6.40;;;1.87;;
16310;SDS011;8264;48.510;8.872;2022-09-09T06:48:20;8.60;;;1.47;;
16310;SDS011;8264;48.510;8.872;2022-09-09T06:50:47;7.10;;;1.60;;
16310;SDS011;8264;48.510;8.872;2022-09-09T06:53:15;4.73;;;2.17;;
16310;SDS011;8264;48.510;8.872;2022-09-09T06:55:44;3.17;;;1.47;;
16310;SDS011;8264;48.510;8.872;2022-09-09T06:58:10;11.57;;;7.63;;
16310;SDS011;8264;48.510;8.872;2022-09-09T07:00:37;3.47;;;1.93;;
16310;SDS011;8264;48.510;8.872;2022-09-09T07:03:03;7.20;;;2.43;;
16310;SDS011;8264;48.510;8.872;2022-09-09T07:05:31;3.97;;;2.20;;
16310;SDS011;8264;48.510;8.872;2022-09-09T07:07:58;3.40;;;1.63;;
16310;SDS011;8264;48.510;8.872;2022-09-09T07:10:24;3.13;;;1.57;;
16310;SDS011;8264;48.510;8.872;2022-09-09T07:12:51;6.00;;;1.67;;
16310;SDS011;8264;48.510;8.872;2022-09-09T07:15:18;4.87;;;1.30;;
16310;SDS011;8264;48.510;8.872;2022-09-09T07:17:45;15.97;;;12.43;;
16310;SDS011;8264;48.510;8.872;2022-09-09T07:20:11;9.30;;;7.47;;
16310;SDS011;8264;48.510;8.872;2022-09-09T07:22:40;14.30;;;7.83;;
16310;SDS011;8264;48.510;8.872;2022-09-09T07:25:07;12.07;;;6.87;;
16310;SDS011;8264;48.510;8.872;2022-09-09T07:27:34;6.57;;;3.10;;
16310;SDS011;8264;48.510;8.872;2022-09-09T07:30:01;2.83;;;1.77;;
16310;SDS011;8264;48.510;8.872;2022-09-09T07:32:28;5.40;;;2.43;;
16310;SDS011;8264;48.510;8.872;2022-09-09T07:34:55;4.43;;;2.53;;
16310;SDS011;8264;48.510;8.872;2022-09-09T07:37:23;8.03;;;2.20;;
16310;SDS011;8264;48.510;8.872;2022-09-09T07:39:50;5.93;;;2.17;;
16310;SDS011;8264;48.510;8.872;2022-09-09T07:42:17;7.77;;;3.47;;
16310;SDS011;8264;48.510;8.872;2022-09-09T07:44:44;6.73;;;4.37;;
16310;SDS011;8264;48.510;8.872;2022-09-09T07:47:10;2.50;;;1.13;;
16310;SDS011;8264;48.510;8.872;2022-09-09T07:49:38;4.23;;;1.37;;
16310;SDS011;8264;48.510;8.872;2022-09-09T07:52:05;3.77;;;1.33;;
16310;SDS011;8264;48.510;8.872;2022-09-09T07:54:32;4.33;;;2.37;;
16310;SDS011;8264;48.510;8.872;2022-09-09T07:57:00;4.60;;;1.60;;
16310;SDS011;8264;48.510;8.872;2022-09-09T07:59:28;4.07;;;1.30;;
16310;SDS011;8264;48.510;8.872;2022-09-09T08:01:55;4.80;;;1.10;;
16310;SDS011;8264;48.510;8.872;2022-09-09T08:04:24;4.57;;;1.20;;
16310;SDS011;8264;48.510;8.872;2022-09-09T08:06:51;2.40;;;1.13;;
16310;SDS011;8264;48.510;8.872;2022-09-09T08:09:19;2.50;;;1.00;;
16310;SDS011;8264;48.510;8.872;2022-09-09T08:11:46;3.23;;;1.30;;
16310;SDS011;8264;48.510;8.872;2022-09-09T08:14:14;4.37;;;1.00;;
16310;SDS011;8264;48.510;8.872;2022-09-09T08:16:42;2.77;;;1.20;;
16310;SDS011;8264;48.510;8.872;2022-09-09T08:19:09;3.83;;;1.20;;
16310;SDS011;8264;48.510;8.872;2022-09-09T08:21:36;2.73;;;1.10;;
16310;SDS011;8264;48.510;8.872;2022-09-09T08:24:05;1.77;;;1.03;;
16310;SDS011;8264;48.510;8.872;2022-09-09T08:26:34;3.03;;;1.00;;
16310;SDS011;8264;48.510;8.872;2022-09-09T08:29:03;7.67;;;1.50;;
16310;SDS011;8264;48.510;8.872;2022-09-09T08:31:32;5.77;;;1.30;;
16310;SDS011;8264;48.510;8.872;2022-09-09T08:34:00;2.67;;;1.17;;
16310;SDS011;8264;48.510;8.872;2022-09-09T08:36:29;3.77;;;1.30;;
16310;SDS011;8264;48.510;8.872;2022-09-09T08:38:58;4.70;;;1.10;;
16310;SDS011;8264;48.510;8.872;2022-09-09T08:41:31;2.27;;;1.10;;
16310;SDS011;8264;48.510;8.872;2022-09-09T08:44:10;4.00;;;1.10;;
16310;SDS011;8264;48.510;8.872;2022-09-09T08:46:44;9.37;;;8.47;;
16310;SDS011;8264;48.510;8.872;2022-09-09T08:49:17;4.33;;;1.87;;
16310;SDS011;8264;48.510;8.872;2022-09-09T08:51:50;8.13;;;1.60;;
16310;SDS011;8264;48.510;8.872;2022-09-09T08:54:20;4.20;;;1.17;;
16310;SDS011;8264;48.510;8.872;2022-09-09T08:56:46;3.73;;;1.10;;
16310;SDS011;8264;48.510;8.872;2022-09-09T08:59:14;2.00;;;0.80;;
16310;SDS011;8264;48.510;8.872;2022-09-09T09:02:02;2.40;;;1.10;;
16310;SDS011;8264;48.510;8.872;2022-09-09T09:04:42;2.40;;;0.97;;
16310;SDS011;8264;48.510;8.872;2022-09-09T09:07:17;2.63;;;0.90;;
16310;SDS011;8264;48.510;8.872;2022-09-09T09:09:51;7.07;;;1.27;;
16310;SDS011;8264;48.510;8.872;2022-09-09T09:12:24;3.90;;;1.07;;
16310;SDS011;8264;48.510;8.872;2022-09-09T09:14:52;3.23;;;1.13;;
16310;SDS011;8264;48.510;8.872;2022-09-09T09:17:23;2.53;;;1.00;;
16310;SDS011;8264;48.510;8.872;2022-09-09T09:19:50;5.27;;;1.13;;
16310;SDS011;8264;48.510;8.872;2022-09-09T09:22:18;10.07;;;5.70;;
16310;SDS011;8264;48.510;8.872;2022-09-09T09:24:49;4.23;;;2.07;;
16310;SDS011;8264;48.510;8.872;2022-09-09T09:27:30;3.50;;;1.10;;
16310;SDS011;8264;48.510;8.872;2022-09-09T09:29:59;3.87;;;1.10;;
16310;SDS011;8264;48.510;8.872;2022-09-09T09:32:31;3.10;;;1.10;;
16310;SDS011;8264;48.510;8.872;2022-09-09T09:34:59;3.80;;;0.87;;
16310;SDS011;8264;48.510;8.872;2022-09-09T09:37:30;4.57;;;1.10;;
16310;SDS011;8264;48.510;8.872;2022-09-09T09:40:07;4.37;;;1.10;;
16310;SDS011;8264;48.510;8.872;2022-09-09T09:42:34;6.13;;;1.33;;
16310;SDS011;8264;48.510;8.872;2022-09-09T09:45:07;2.20;;;0.83;;
16310;SDS011;8264;48.510;8.872;2022-09-09T09:47:36;3.03;;;1.07;;
16310;SDS011;8264;48.510;8.872;2022-09-09T09:50:15;6.50;;;1.00;;
16310;SDS011;8264;48.510;8.872;2022-09-09T09:52:51;1.30;;;0.60;;
16310;SDS011;8264;48.510;8.872;2022-09-09T09:55:19;2.67;;;0.90;;
16310;SDS011;8264;48.510;8.872;2022-09-09T09:57:46;3.40;;;0.93;;
16310;SDS011;8264;48.510;8.872;2022-09-09T10:00:13;2.83;;;0.83;;
16310;SDS011;8264;48.510;8.872;2022-09-09T10:02:44;2.17;;;0.90;;
16310;SDS011;8264;48.510;8.872;2022-09-09T10:05:13;3.00;;;0.97;;
16310;SDS011;8264;48.510;8.872;2022-09-09T10:07:41;5.83;;;1.27;;
16310;SDS011;8264;48.510;8.872;2022-09-09T10:10:12;2.10;;;0.87;;
16310;SDS011;8264;48.510;8.872;2022-09-09T10:12:44;3.40;;;1.20;;
16310;SDS011;8264;48.510;8.872;2022-09-09T10:15:26;8.10;;;1.13;;
16310;SDS011;8264;48.510;8.872;2022-09-09T10:18:00;4.80;;;1.27;;
16310;SDS011;8264;48.510;8.872;2022-09-09T10:20:37;12.23;;;1.17;;
16310;SDS011;8264;48.510;8.872;2022-09-09T10:23:12;7.03;;;1.40;;
16310;SDS011;8264;48.510;8.872;2022-09-09T10:25:52;5.57;;;1.00;;
16310;SDS011;8264;48.510;8.872;2022-09-09T10:28:31;2.00;;;0.90;;
16310;SDS011;8264;48.510;8.872;2022-09-09T10:31:06;11.30;;;1.30;;
16310;SDS011;8264;48.510;8.872;2022-09-09T10:33:44;3.47;;;0.90;;
16310;SDS011;8264;48.510;8.872;2022-09-09T10:36:16;3.27;;;1.20;;
16310;SDS011;8264;48.510;8.872;2022-09-09T10:38:46;8.57;;;4.27;;
16310;SDS011;8264;48.510;8.872;2022-09-09T10:41:15;6.20;;;2.20;;
16310;SDS011;8264;48.510;8.872;2022-09-09T10:43:48;6.50;;;4.10;;
16310;SDS011;8264;48.510;8.872;2022-09-09T10:46:22;4.30;;;1.90;;
16310;SDS011;8264;48.510;8.872;2022-09-09T10:48:58;13.70;;;2.00;;
16310;SDS011;8264;48.510;8.872;2022-09-09T10:51:33;5.03;;;1.80;;
16310;SDS011;8264;48.510;8.872;2022-09-09T10:54:13;3.43;;;1.20;;
16310;SDS011;8264;48.510;8.872;2022-09-09T10:57:01;5.20;;;1.33;;
16310;SDS011;8264;48.510;8.872;2022-09-09T10:59:31;1.50;;;0.80;;
16310;SDS011;8264;48.510;8.872;2022-09-09T11:02:01;2.87;;;1.00;;
16310;SDS011;8264;48.510;8.872;2022-09-09T11:04:35;1.67;;;0.47;;
16310;SDS011;8264;48.510;8.872;2022-09-09T11:07:05;12.70;;;1.63;;
16310;SDS011;8264;48.510;8.872;2022-09-09T11:09:36;3.50;;;1.10;;
16310;SDS011;8264;48.510;8.872;2022-09-09T11:12:04;2.33;;;0.90;;
16310;SDS011;8264;48.510;8.872;2022-09-09T11:14:32;1.83;;;0.60;;
16310;SDS011;8264;48.510;8.872;2022-09-09T11:17:04;1.13;;;0.47;;
16310;SDS011;8264;48.510;8.872;2022-09-09T11:19:33;2.70;;;1.13;;
16310;SDS011;8264;48.510;8.872;2022-09-09T11:22:03;2.07;;;0.70;;
16310;SDS011;8264;48.510;8.872;2022-09-09T11:24:33;1.60;;;0.70;;
16310;SDS011;8264;48.510;8.872;2022-09-09T11:27:03;2.70;;;0.60;;
16310;SDS011;8264;48.510;8.872;2022-09-09T11:29:44;2.37;;;0.70;;
16310;SDS011;8264;48.510;8.872;2022-09-09T11:32:37;1.93;;;0.60;;
16310;SDS011;8264;48.510;8.872;2022-09-09T11:35:20;1.00;;;0.60;;
16310;SDS011;8264;48.510;8.872;2022-09-09T11:40:46;1.43;;;0.77;;
16310;SDS011;8264;48.510;8.872;2022-09-09T11:43:13;1.77;;;0.77;;
16310;SDS011;8264;48.510;8.872;2022-09-09T11:45:42;3.00;;;0.70;;
16310;SDS011;8264;48.510;8.872;2022-09-09T11:48:22;3.13;;;0.73;;
16310;SDS011;8264;48.510;8.872;2022-09-09T11:50:58;2.23;;;0.90;;
16310;SDS011;8264;48.510;8.872;2022-09-09T11:53:26;2.00;;;0.80;;
16310;SDS011;8264;48.510;8.872;2022-09-09T11:58:56;3.03;;;0.80;;
16310;SDS011;8264;48.510;8.872;2022-09-09T12:01:35;1.70;;;0.70;;
16310;SDS011;8264;48.510;8.872;2022-09-09T12:04:11;3.03;;;0.90;;
16310;SDS011;8264;48.510;8.872;2022-09-09T12:06:46;3.07;;;1.10;;
16310;SDS011;8264;48.510;8.872;2022-09-09T12:09:17;5.87;;;0.87;;
16310;SDS011;8264;48.510;8.872;2022-09-09T12:11:46;3.90;;;0.97;;
16310;SDS011;8264;48.510;8.872;2022-09-09T12:14:19;2.83;;;0.90;;
16310;SDS011;8264;48.510;8.872;2022-09-09T12:16:47;2.60;;;0.73;;
16310;SDS011;8264;48.510;8.872;2022-09-09T12:19:15;3.37;;;1.30;;
16310;SDS011;8264;48.510;8.872;2022-09-09T12:21:46;1.83;;;0.90;;
16310;SDS011;8264;48.510;8.872;2022-09-09T12:24:17;3.73;;;2.23;;
16310;SDS011;8264;48.510;8.872;2022-09-09T12:26:47;5.20;;;1.00;;
16310;SDS011;8264;48.510;8.872;2022-09-09T12:29:21;2.93;;;0.80;;
16310;SDS011;8264;48.510;8.872;2022-09-09T12:31:52;3.43;;;1.73;;
16310;SDS011;8264;48.510;8.872;2022-09-09T12:34:26;3.87;;;1.90;;
16310;SDS011;8264;48.510;8.872;2022-09-09T12:37:02;4.80;;;1.53;;
16310;SDS011;8264;48.510;8.872;2022-09-09T12:39:31;7.53;;;1.53;;
16310;SDS011;8264;48.510;8.872;2022-09-09T12:42:01;4.47;;;1.33;;
16310;SDS011;8264;48.510;8.872;2022-09-09T12:44:28;5.10;;;2.13;;
16310;SDS011;8264;48.510;8.872;2022-09-09T12:46:55;4.93;;;2.40;;
16310;SDS011;8264;48.510;8.872;2022-09-09T12:49:25;3.70;;;2.13;;
16310;SDS011;8264;48.510;8.872;2022-09-09T12:51:56;3.47;;;1.10;;
16310;SDS011;8264;48.510;8.872;2022-09-09T12:54:24;2.27;;;1.00;;
16310;SDS011;8264;48.510;8.872;2022-09-09T12:56:51;2.40;;;0.80;;
16310;SDS011;8264;48.510;8.872;2022-09-09T12:59:21;3.00;;;0.90;;
16310;SDS011;8264;48.510;8.872;2022-09-09T13:01:55;3.40;;;1.10;;
16310;SDS011;8264;48.510;8.872;2022-09-09T13:04:22;4.40;;;1.00;;
16310;SDS011;8264;48.510;8.872;2022-09-09T13:06:48;4.83;;;1.30;;
16310;SDS011;8264;48.510;8.872;2022-09-09T13:09:17;7.07;;;1.40;;
16310;SDS011;8264;48.510;8.872;2022-09-09T13:11:46;2.10;;;1.00;;
16310;SDS011;8264;48.510;8.872;2022-09-09T13:14:15;2.50;;;0.67;;
16310;SDS011;8264;48.510;8.872;2022-09-09T13:16:43;2.33;;;0.83;;
16310;SDS011;8264;48.510;8.872;2022-09-09T13:19:19;2.77;;;0.90;;
16310;SDS011;8264;48.510;8.872;2022-09-09T13:21:46;2.60;;;1.00;;
16310;SDS011;8264;48.510;8.872;2022-09-09T13:24:25;7.80;;;1.13;;
16310;SDS011;8264;48.510;8.872;2022-09-09T13:26:56;2.43;;;0.70;;
16310;SDS011;8264;48.510;8.872;2022-09-09T13:29:23;2.33;;;0.63;;
16310;SDS011;8264;48.510;8.872;2022-09-09T13:31:50;2.57;;;0.90;;
16310;SDS011;8264;48.510;8.872;2022-09-09T13:34:26;3.30;;;0.90;;
16310;SDS011;8264;48.510;8.872;2022-09-09T13:36:55;2.00;;;0.70;;
16310;SDS011;8264;48.510;8.872;2022-09-09T13:39:26;1.73;;;0.60;;
16310;SDS011;8264;48.510;8.872;2022-09-09T13:41:52;2.83;;;0.90;;
16310;SDS011;8264;48.510;8.872;2022-09-09T13:44:21;1.90;;;0.80;;
16310;SDS011;8264;48.510;8.872;2022-09-09T13:46:59;3.70;;;0.80;;
16310;SDS011;8264;48.510;8.872;2022-09-09T13:49:28;2.80;;;0.90;;
16310;SDS011;8264;48.510;8.872;2022-09-09T13:52:03;2.10;;;0.80;;
16310;SDS011;8264;48.510;8.872;2022-09-09T13:54:31;2.93;;;0.80;;
16310;SDS011;8264;48.510;8.872;2022-09-09T13:56:57;1.93;;;0.90;;
16310;SDS011;8264;48.510;8.872;2022-09-09T13:59:25;2.43;;;0.67;;
16310;SDS011;8264;48.510;8.872;2022-09-09T14:01:52;1.83;;;0.90;;
16310;SDS011;8264;48.510;8.872;2022-09-09T14:04:18;3.40;;;0.80;;
16310;SDS011;8264;48.510;8.872;2022-09-09T14:06:46;2.33;;;0.73;;
16310;SDS011;8264;48.510;8.872;2022-09-09T14:09:13;2.60;;;0.60;;
16310;SDS011;8264;48.510;8.872;2022-09-09T14:11:41;2.10;;;0.80;;
16310;SDS011;8264;48.510;8.872;2022-09-09T14:14:08;1.90;;;0.67;;
16310;SDS011;8264;48.510;8.872;2022-09-09T14:16:35;1.60;;;0.60;;
16310;SDS011;8264;48.510;8.872;2022-09-09T14:19:02;2.73;;;0.80;;
16310;SDS011;8264;48.510;8.872;2022-09-09T14:21:29;1.43;;;0.63;;
16310;SDS011;8264;48.510;8.872;2022-09-09T14:23:56;1.83;;;0.70;;
16310;SDS011;8264;48.510;8.872;2022-09-09T14:26:23;2.23;;;0.80;;
16310;SDS011;8264;48.510;8.872;2022-09-09T14:28:51;1.77;;;0.67;;
16310;SDS011;8264;48.510;8.872;2022-09-09T14:31:17;1.27;;;0.70;;
16310;SDS011;8264;48.510;8.872;2022-09-09T14:33:45;3.07;;;0.63;;
16310;SDS011;8264;48.510;8.872;2022-09-09T14:36:12;2.23;;;0.97;;
16310;SDS011;8264;48.510;8.872;2022-09-09T14:38:40;3.20;;;0.70;;
16310;SDS011;8264;48.510;8.872;2022-09-09T14:41:07;18.87;;;12.60;;
16310;SDS011;8264;48.510;8.872;2022-09-09T14:43:37;8.97;;;1.17;;
16310;SDS011;8264;48.510;8.872;2022-09-09T14:46:06;3.17;;;0.70;;
16310;SDS011;8264;48.510;8.872;2022-09-09T14:48:34;3.00;;;0.80;;
16310;SDS011;8264;48.510;8.872;2022-09-09T14:51:06;4.00;;;0.67;;
16310;SDS011;8264;48.510;8.872;2022-09-09T14:53:33;5.40;;;1.00;;
16310;SDS011;8264;48.510;8.872;2022-09-09T14:56:03;3.20;;;0.93;;
16310;SDS011;8264;48.510;8.872;2022-09-09T14:58:31;6.50;;;0.80;;
16310;SDS011;8264;48.510;8.872;2022-09-09T15:01:01;3.27;;;0.67;;
16310;SDS011;8264;48.510;8.872;2022-09-09T15:03:29;3.67;;;0.70;;
16310;SDS011;8264;48.510;8.872;2022-09-09T15:05:55;3.73;;;0.90;;
16310;SDS011;8264;48.510;8.872;2022-09-09T15:08:24;3.83;;;0.80;;
16310;SDS011;8264;48.510;8.872;2022-09-09T15:10:58;2.87;;;0.80;;
16310;SDS011;8264;48.510;8.872;2022-09-09T15:13:25;1.67;;;0.40;;
16310;SDS011;8264;48.510;8.872;2022-09-09T15:15:52;2.37;;;0.70;;
16310;SDS011;8264;48.510;8.872;2022-09-09T15:18:19;3.17;;;0.73;;
16310;SDS011;8264;48.510;8.872;2022-09-09T15:20:45;3.27;;;0.77;;